createdAt,value
2022-12-28T02:07:40.822Z,87.6
2022-12-28T02:27:40.787Z,87.5
2022-12-28T02:47:40.816Z,87.7
2022-12-28T03:07:40.784Z,87.8
2022-12-28T03:27:40.751Z,88.8
2022-12-28T03:47:40.724Z,90.8
2022-12-28T04:07:40.685Z,90.9
2022-12-28T04:27:40.661Z,90.8
2022-12-28T05:07:40.643Z,92.8
2022-12-28T06:47:40.484Z,97.7
2022-12-28T07:07:40.471Z,98.5
2022-12-28T07:27:40.453Z,98.6
2022-12-28T09:27:40.308Z,91.5
2022-12-28T10:27:40.205Z,86.6
2022-12-28T10:47:40.199Z,84.3
2022-12-28T11:47:40.091Z,82.9
2022-12-28T12:07:40.103Z,89.1
2022-12-28T13:27:39.965Z,85.9
2022-12-28T13:47:39.942Z,84.5
2022-12-28T14:07:39.939Z,84.1
2022-12-28T14:27:39.884Z,84.7
2022-12-28T14:47:39.847Z,85.9
2022-12-28T15:27:39.824Z,82.2
2022-12-28T15:47:39.782Z,80.6
2022-12-28T16:07:39.750Z,79.3
2022-12-28T17:07:39.660Z,77.5
2022-12-28T17:27:39.643Z,78.2
2022-12-28T17:47:39.651Z,81.5
2022-12-28T18:07:39.584Z,84.9
2022-12-28T18:27:39.615Z,86.2
2022-12-28T18:47:39.593Z,87.9
2022-12-28T19:07:42.085Z,90.6
2022-12-28T19:27:39.486Z,93.6
2022-12-28T19:47:39.447Z,92.7
2022-12-28T20:07:39.444Z,92
2022-12-28T20:27:39.450Z,92.5
2022-12-28T20:47:39.380Z,90.8
2022-12-28T21:07:39.346Z,89.2
2022-12-28T21:27:39.368Z,88.6
2022-12-28T22:07:39.262Z,90.2
2022-12-28T22:27:39.234Z,90.3
2022-12-28T22:47:39.205Z,93
2022-12-28T23:27:39.163Z,93.1
2022-12-28T23:47:39.145Z,91.1
